Legend :    VFR   Marginal VFR   IFR   Intensive IFR   Very Intensive IFR
Visi :
Ceiling :
>= 8 km
>= 3000ft
5 to 8 km
1000 to 3000 ft
1500m to 5 km
500 to 1000 ft
800 to 1500m
200 to 500 ft
< 800m
< 200 ft
Symbols :   Thunderstorms  Fog  Heavy snow  Heavy precipitations  Wind > 20 kt







- Airport Elevation : 1333 ft
- IATA code : ICT


KICT - Wichita Mid Continent

CURRENT METAR :
  • 211853Z 18020G27KT 10SM SCT028 SCT040 BKN110 BKN200 30/21 A2991 RMK AO2 PK WND 18027/1822 SLP115 T03000211

EXPIRED METARs :
  • 211753Z 20012G25KT 10SM BKN028 BKN034 BKN200 28/21 A2994 RMK AO2 PK WND 19026/1726 SLP124 T02830206 10289 20217 58001
  • 211653Z 19014G26KT 10SM BKN021 BKN027 OVC036 26/21 A2996 RMK AO2 PK WND 20026/1614 SLP132 T02610211

TAF KICT
Valid from the 21 at 19:00 until the 22 at 18:00 UTC


211926Z 2119/2218 19020G30KT P6SM SCT040
FM220300 18015KT P6SM VCSH SCT030 BKN050 OVC100
TEMPO 2209/2212 P6SM -TSRA BKN025CB
FM221200 19015KT P6SM BKN015
FM221700 25012KT P6SM BKN015
No reported NOTAMs for that airfield.


LOGIN :  

Disclaimer |     EN      FR      IT